Villeneuve-sur-Lot Airport

LFCW · Lot-et-Garonne, Aquitania-Limosino-Poitou-Charentes, Francia

Storia di METAR LFCW · Villeneuve-sur-Lot Airport

Di seguito sono riportati i METAR degli ultimi giorni. Seleziona un anno per sfogliare i METAR più vecchi, dall'anno 2007 in poi.

24 giugno 2024

Tempo Codice Tempo meteorologico Temp. Vista Base nuvolosa Vento METAR/SPECI
14:00
V
26 °C 10 km+ - 330° 330° 7 kt METAR LFBA 241200Z AUTO 33007KT 240V360 9999 FEW045 26/15 Q1015 NOSIG
13:30
V
25 °C 10 km+ - 330° 330° 5 kt METAR LFBA 241130Z AUTO 33005KT 270V050 CAVOK 25/15 Q1015 NOSIG
13:00
V
25 °C 10 km+ - 330° 330° 5 kt METAR LFBA 241100Z AUTO 33005KT 270V020 CAVOK 25/15 Q1015 NOSIG
12:30
V
24 °C 10 km+ - 320° 320° 6 kt METAR LFBA 241030Z AUTO 32006KT 230V360 CAVOK 24/16 Q1015 NOSIG
12:00
V
24 °C 10 km+ - 310° 310° 5 kt METAR LFBA 241000Z AUTO 31005KT 260V360 CAVOK 24/15 Q1016 NOSIG
11:30
V
23 °C 10 km+ - 290° 290° 5 kt METAR LFBA 240930Z AUTO 29005KT 260V320 CAVOK 23/16 Q1016 NOSIG
11:00
V
22 °C 10 km+ - 310° 310° 4 kt METAR LFBA 240900Z AUTO 31004KT 270V350 CAVOK 22/15 Q1016 NOSIG
10:30
V
21 °C 10 km+ - 290° 290° 4 kt METAR LFBA 240830Z AUTO 29004KT 230V340 CAVOK 21/15 Q1016 NOSIG
10:00
V
21 °C 10 km+ - 320° 320° 3 kt METAR LFBA 240800Z AUTO 32003KT 270V020 CAVOK 21/15 Q1017 NOSIG
09:30
V
19 °C 10 km+ - 300° 300° 3 kt METAR LFBA 240730Z AUTO 30003KT 250V340 CAVOK 19/14 Q1017 NOSIG
09:00
V
18 °C 10 km+ - 300° 300° 4 kt METAR LFBA 240700Z AUTO 30004KT 260V350 CAVOK 18/14 Q1017 NOSIG
08:30
V
17 °C 10 km+ - 290° 290° 4 kt METAR LFBA 240630Z AUTO 29004KT CAVOK 17/15 Q1017 NOSIG
08:00
V
16 °C 10 km+ - 310° 310° 2 kt METAR LFBA 240600Z AUTO 31002KT CAVOK 16/15 Q1017 NOSIG
07:30
V
14 °C 10 km+ - 290° 290° 2 kt METAR LFBA 240530Z AUTO 29002KT CAVOK 14/14 Q1017 NOSIG
07:00
V
13 °C 10 km+ - Var Var 1 kt METAR LFBA 240500Z AUTO VRB01KT CAVOK 13/12 Q1017 NOSIG
06:30
V
12 °C 9 km - 310° 310° 3 kt METAR LFBA 240430Z AUTO 31003KT 9000 NSC 12/11 Q1017 NOSIG
06:00
V
13 °C 10 km+ - 310° 310° 2 kt METAR LFBA 240400Z AUTO 31002KT CAVOK 13/12 Q1017 NOSIG
05:30
V
12 °C 10 km+ - 300° 300° 2 kt METAR LFBA 240330Z AUTO 30002KT CAVOK 12/11 Q1017 NOSIG
05:00
V
13 °C 10 km+ - Var Var 1 kt METAR LFBA 240300Z AUTO VRB01KT CAVOK 13/12 Q1017 NOSIG
04:30
V
13 °C 10 km+ - 280° 280° 1 kt METAR LFBA 240230Z AUTO 28001KT CAVOK 13/12 Q1017
04:00
V
14 °C 10 km+ - 280° 280° 3 kt METAR LFBA 240200Z AUTO 28003KT CAVOK 14/13 Q1018
03:30
V
13 °C 10 km+ - 260° 260° 1 kt METAR LFBA 240130Z AUTO 26001KT CAVOK 13/13 Q1018
03:00
V
13 °C 10 km+ - 280° 280° 2 kt METAR LFBA 240100Z AUTO 28002KT CAVOK 13/12 Q1018
02:30
V
14 °C 10 km+ - 290° 290° 2 kt METAR LFBA 240030Z AUTO 29002KT CAVOK 14/12 Q1018
02:00
V
15 °C 10 km+ - 270° 270° 3 kt METAR LFBA 240000Z AUTO 27003KT CAVOK 15/13 Q1018
01:30
V
14 °C 10 km+ - 300° 300° 3 kt METAR LFBA 232330Z AUTO 30003KT CAVOK 14/13 Q1018
01:00
V
15 °C 10 km+ - 290° 290° 2 kt METAR LFBA 232300Z AUTO 29002KT CAVOK 15/13 Q1019
00:30
V
15 °C 10 km+ - 290° 290° 2 kt METAR LFBA 232230Z AUTO 29002KT CAVOK 15/13 Q1019
00:00
V
16 °C 10 km+ - 260° 260° 2 kt METAR LFBA 232200Z AUTO 26002KT CAVOK 16/13 Q1019

23 giugno 2024

Tempo Codice Tempo meteorologico Temp. Vista Base nuvolosa Vento METAR/SPECI
23:30
V
16 °C 10 km+ - 360° 360° 0 kt METAR LFBA 232130Z AUTO 00000KT CAVOK 16/13 Q1019
23:00
V
17 °C 10 km+ - 260° 260° 2 kt METAR LFBA 232100Z AUTO 26002KT CAVOK 17/13 Q1019
22:30
V
19 °C 10 km+ - 250° 250° 3 kt METAR LFBA 232030Z AUTO 25003KT CAVOK 19/13 Q1019
22:00
V
19 °C 10 km+ - 240° 240° 3 kt METAR LFBA 232000Z AUTO 24003KT CAVOK 19/13 Q1019 NOSIG
21:30
V
20 °C 10 km+ - 290° 290° 5 kt METAR LFBA 231930Z AUTO 29005KT CAVOK 20/14 Q1018 NOSIG
21:00
V
22 °C 10 km+ - 290° 290° 5 kt METAR LFBA 231900Z AUTO 29005KT CAVOK 22/14 Q1018 NOSIG
20:30
V
22 °C 10 km+ - 300° 300° 7 kt METAR LFBA 231830Z AUTO 30007KT CAVOK 22/13 Q1018 NOSIG
20:00
V
23 °C 10 km+ - 300° 300° 7 kt METAR LFBA 231800Z AUTO 30007KT 280V340 9999 FEW043 23/13 Q1018 NOSIG
19:30
V
23 °C 10 km+ - 320° 320° 7 kt METAR LFBA 231730Z AUTO 32007KT 280V360 9999 FEW046 23/13 Q1018 NOSIG
19:00
V
23 °C 10 km+ - 310° 310° 8 kt METAR LFBA 231700Z AUTO 31008KT 270V350 CAVOK 23/13 Q1018 NOSIG
18:30
V
24 °C 10 km+ - 300° 300° 7 kt METAR LFBA 231630Z AUTO 30007KT 260V320 9999 FEW049 SCT068 24/13 Q1019 NOSIG
18:00
V
24 °C 10 km+ - 320° 320° 8 kt METAR LFBA 231600Z AUTO 32008KT 280V360 9999 SCT047 SCT054 24/14 Q1019 NOSIG
17:30
V
24 °C 10 km+ - 350° 350° 5 kt METAR LFBA 231530Z AUTO 35005KT 260V060 CAVOK 24/12 Q1019 NOSIG
17:00
V
23 °C 10 km+ - 300° 300° 6 kt METAR LFBA 231500Z AUTO 30006KT 260V360 9999 FEW045 SCT056 23/13 Q1019 NOSIG
16:30
V
23 °C 10 km+ - 300° 300° 5 kt METAR LFBA 231430Z AUTO 30005KT 220V360 9999 FEW038 SCT058 23/13 Q1019 NOSIG
16:00
V
22 °C 10 km+ - 300° 300° 7 kt METAR LFBA 231400Z AUTO 30007KT 260V340 9999 FEW037 22/13 Q1019 NOSIG
15:30
V
22 °C 10 km+ - 290° 290° 7 kt METAR LFBA 231330Z AUTO 29007KT 250V350 CAVOK 22/14 Q1019 NOSIG
15:00
V
22 °C 10 km+ - 280° 280° 7 kt METAR LFBA 231300Z AUTO 28007KT 230V320 9999 SCT032 22/13 Q1019 NOSIG
14:30
V
22 °C 10 km+ - 290° 290° 7 kt METAR LFBA 231230Z AUTO 29007KT 250V340 9999 FEW028 SCT036 22/15 Q1020 NOSIG
14:00
V
21 °C 10 km+ 5.200 ft 300° 300° 5 kt METAR LFBA 231200Z AUTO 30005KT 230V010 9999 FEW033 BKN052 21/15 Q1020 NOSIG
13:30
V
20 °C 10 km+ 4.600 ft 320° 320° 5 kt METAR LFBA 231130Z AUTO 32005KT 270V360 9999 FEW026 OVC046 20/13 Q1020 NOSIG
13:00
V
20 °C 10 km+ 5.000 ft 300° 300° 4 kt METAR LFBA 231100Z AUTO 30004KT 240V340 9999 FEW021 OVC050 20/13 Q1021 NOSIG
12:30
V
19 °C 10 km+ 5.000 ft 310° 310° 4 kt METAR LFBA 231030Z AUTO 31004KT 270V020 9999 FEW020 OVC050 19/13 Q1021 NOSIG
12:00
V
19 °C 10 km+ 4.900 ft 320° 320° 3 kt METAR LFBA 231000Z AUTO 32003KT 220V020 9999 OVC049 19/14 Q1021 TEMPO 4000 DZ BKN008
11:30
U
18 °C 0 m 4.800 ft 270° 270° 4 kt METAR LFBA 230930Z AUTO 27004KT 240V300 //// R29///// // SCT039 OVC048 18/14 Q1021
11:00
V
16 °C 10 km+ 3.700 ft 290° 290° 4 kt METAR LFBA 230900Z AUTO 29004KT 260V320 9999 FEW027 OVC037 16/14 Q1021 TEMPO 4000 DZ BKN008
10:30
M
16 °C 5 km 2.900 ft 330° 330° 4 kt METAR LFBA 230830Z AUTO 33004KT 290V360 5000 -RADZ BR FEW008 SCT020 BKN029 16/14 Q1021 NOSIG
10:00
M
17 °C 10 km+ 1.900 ft 320° 320° 4 kt METAR LFBA 230800Z AUTO 32004KT 280V350 9999 FEW010 BKN019 BKN028 17/14 Q1021 TEMPO BKN008
09:30
M
17 °C 10 km+ 1.800 ft Var Var 3 kt METAR LFBA 230730Z AUTO VRB03KT 9999 FEW012 BKN018 BKN042 17/14 Q1021 TEMPO BKN008
09:00
M
16 °C 10 km+ 1.000 ft Var Var 3 kt METAR LFBA 230700Z AUTO VRB03KT 9999 BKN010 BKN023 OVC054 16/14 Q1021 NOSIG
08:30
M
16 °C 10 km+ 1.600 ft 280° 280° 4 kt METAR LFBA 230630Z AUTO 28004KT 230V310 9999 FEW010 BKN016 BKN021 16/15 Q1021 TEMPO BKN008
08:00
M
15 °C 10 km+ 1.600 ft Var Var 3 kt METAR LFBA 230600Z AUTO VRB03KT 9999 BKN016 BKN025 BKN037 15/14 Q1021 TEMPO BKN008
07:30
I
15 °C 10 km+ 900 ft 260° 260° 4 kt METAR LFBA 230530Z AUTO 26004KT 9999 BKN009 OVC014 15/14 Q1021 TEMPO BKN012
07:00
I
15 °C 10 km+ 900 ft Var Var 3 kt METAR LFBA 230500Z AUTO VRB03KT 9999 BKN009 BKN026 OVC045 15/14 Q1021 TEMPO SCT013 BKN050
06:30
M
15 °C 10 km+ 1.300 ft 280° 280° 2 kt METAR LFBA 230430Z AUTO 28002KT 9999 BKN013 BKN028 OVC050 15/14 Q1021 TEMPO SCT013 BKN050
06:00
I
15 °C 3,9 km 2.600 ft 300° 300° 2 kt METAR LFBA 230400Z AUTO 30002KT 3900 BR FEW014 BKN026 BKN052 15/14 Q1021 BECMG 9999 NSW
05:30
M
15 °C 10 km+ 2.800 ft 290° 290° 3 kt METAR LFBA 230330Z AUTO 29003KT 9999 BKN028 OVC049 15/14 Q1021 NOSIG
05:00
V
15 °C 10 km+ 4.900 ft 280° 280° 3 kt METAR LFBA 230300Z AUTO 28003KT 9999 BKN049 OVC068 15/14 Q1021
04:30
V
15 °C 10 km+ - 270° 270° 5 kt METAR LFBA 230230Z AUTO 27005KT CAVOK 15/14 Q1021
04:00
V
15 °C 10 km+ 6.200 ft 270° 270° 5 kt METAR LFBA 230200Z AUTO 27005KT 9999 SCT047 OVC062 15/14 Q1021
03:30
M
15 °C 10 km+ 2.000 ft 260° 260° 5 kt METAR LFBA 230130Z AUTO 26005KT 9999 SCT013 BKN020 BKN048 15/14 Q1021
03:00
M
15 °C 10 km+ 1.500 ft 270° 270° 5 kt METAR LFBA 230100Z AUTO 27005KT 9999 FEW010 BKN015 BKN049 15/14 Q1021
02:30
V
15 °C 10 km+ - 270° 270° 5 kt METAR LFBA 230030Z AUTO 27005KT CAVOK 15/14 Q1021
02:00
V
15 °C 10 km+ 5.800 ft 260° 260° 3 kt METAR LFBA 230000Z AUTO 26003KT 9999 FEW036 OVC058 15/14 Q1021
01:30
V
15 °C 10 km+ 3.800 ft 280° 280° 6 kt METAR LFBA 222330Z AUTO 28006KT 9999 FEW015 SCT029 OVC038 15/14 Q1021
01:00
M
15 °C 10 km+ 2.400 ft 310° 310° 5 kt METAR LFBA 222300Z AUTO 31005KT 9999 FEW015 BKN024 BKN034 15/14 Q1022
00:30
M
15 °C 10 km+ 1.000 ft 270° 270° 7 kt METAR LFBA 222230Z AUTO 27007KT 240V300 9999 BKN010 BKN015 OVC076 15/14 Q1021
00:00
M
15 °C 10 km+ 1.400 ft 270° 270° 7 kt METAR LFBA 222200Z AUTO 27007KT 9999 -DZ SCT007 BKN014 BKN025 15/15 Q1022

22 giugno 2024

Tempo Codice Tempo meteorologico Temp. Vista Base nuvolosa Vento METAR/SPECI
23:30
I
15 °C 7 km 800 ft 280° 280° 7 kt METAR LFBA 222130Z AUTO 28007KT 7000 -RADZ OVC008 15/14 Q1022
23:00
I
15 °C 9 km 800 ft 270° 270° 6 kt METAR LFBA 222100Z AUTO 27006KT 9000 -DZ BKN008 OVC012 15/14 Q1021
22:30
I
15 °C 3,7 km 700 ft 260° 260° 6 kt METAR LFBA 222030Z AUTO 26006KT 230V290 3700 -RA BR BKN007 OVC012 15/15 Q1021
22:00
I
16 °C 3 km 600 ft 280° 280° 5 kt METAR LFBA 222000Z AUTO 28005KT 3000 -RA BR BKN006 BKN010 OVC019 16/15 Q1021 BECMG 9999 NSW BKN035
21:30
I
16 °C 2,8 km 800 ft 270° 270° 6 kt METAR LFBA 221930Z AUTO 27006KT 7000 2800 BKN008 BKN014 OVC041 16/15 Q1021 BECMG BKN035
21:00
V
16 °C 10 km+ 4.800 ft 260° 260° 7 kt METAR LFBA 221900Z AUTO 26007KT 9999 OVC048 16/15 Q1020 NOSIG
20:30
V
16 °C 10 km+ 4.400 ft 270° 270° 7 kt METAR LFBA 221830Z AUTO 27007KT 9999 FEW016 BKN044 OVC058 16/15 Q1020 NOSIG
20:00
I
16 °C 10 km+ 800 ft 280° 280° 6 kt METAR LFBA 221800Z AUTO 28006KT 9999 -DZ BKN008 BKN012 BKN030 16/15 Q1020 TEMPO 4000 RA BECMG BKN035
19:30
M
16 °C 9 km 1.300 ft 270° 270° 7 kt METAR LFBA 221730Z AUTO 27007KT 240V300 9000 -RADZ FEW009 BKN013 BKN025 16/15 Q1020 TEMPO 4000 RA BECMG BKN035
19:00
M
16 °C 10 km+ 2.800 ft 280° 280° 6 kt METAR LFBA 221700Z AUTO 28006KT 9999 FEW006 SCT013 BKN028 16/16 Q1020 TEMPO 4000 RA BKN009
18:30
M
16 °C 10 km+ 1.000 ft 290° 290° 8 kt METAR LFBA 221630Z AUTO 29008KT 9999 -RADZ SCT005 BKN010 BKN015 16/16 Q1020 TEMPO 4000 RA
18:00
I
17 °C 4 km 700 ft 280° 280° 7 kt METAR LFBA 221600Z AUTO 28007KT 250V310 4000 RA BR BKN007 BKN011 BKN020 17/16 Q1020 NOSIG
17:30
M
17 °C 10 km+ 3.000 ft Var Var 3 kt METAR LFBA 221530Z AUTO VRB03KT 9999 SCT021 BKN030 OVC036 17/15 Q1020 TEMPO 4000 RA BKN009
17:00
V
17 °C 10 km+ 3.300 ft 290° 290° 5 kt METAR LFBA 221500Z AUTO 29005KT 9999 SCT026 OVC033 17/15 Q1020 TEMPO 4000 RA BKN009
16:30
V
17 °C 10 km+ 3.100 ft 300° 300° 7 kt METAR LFBA 221430Z AUTO 30007KT 9999 BKN031 OVC050 17/15 Q1020 TEMPO 4000 RA BKN009
16:00
I
17 °C 9 km 600 ft 280° 280° 8 kt METAR LFBA 221400Z AUTO 28008KT 250V310 9000 -RA BKN006 BKN022 BKN036 17/16 Q1020 TEMPO 4000 RA
15:30
M
17 °C 5 km 1.200 ft 320° 320° 10 kt METAR LFBA 221330Z AUTO 32010KT 5000 -RA BR SCT007 BKN012 BKN017 17/16 Q1021 TEMPO RA BKN009 BECMG 24008KT
15:00
I
18 °C 4,7 km 1.400 ft 250° 250° 9 kt METAR LFBA 221300Z AUTO 25009KT 220V290 4700 DZ BR FEW004 SCT009 BKN014 18/16 Q1020 TEMPO RA BKN009
14:30
M
17 °C 9 km 1.200 ft 240° 240° 9 kt METAR LFBA 221230Z AUTO 24009KT 210V280 9000 -RADZ BKN012 OVC017 17/16 Q1020 TEMPO 4000 RA BKN009
14:00
M
17 °C 10 km+ 1.200 ft 250° 250° 9 kt METAR LFBA 221200Z AUTO 25009KT 210V280 9999 BKN012 OVC036 17/15 Q1020 TEMPO 4000 RA BKN009
13:30
M
17 °C 10 km+ 1.000 ft 250° 250° 7 kt METAR LFBA 221130Z AUTO 25007KT 210V290 9999 -RADZ BKN010 BKN016 OVC025 17/15 Q1021 TEMPO 4000 RA
13:00
M
17 °C 6 km 1.600 ft 230° 230° 9 kt METAR LFBA 221100Z AUTO 23009KT 190V270 6000 -RA FEW009 BKN016 BKN023 17/15 Q1021 TEMPO 4000 RA BKN014
12:30
M
17 °C 10 km+ 1.500 ft 240° 240° 8 kt METAR LFBA 221030Z AUTO 24008KT 210V270 9999 BKN015 OVC022 17/15 Q1021 TEMPO 4000 RA BKN014
12:00
V
17 °C 10 km+ 3.200 ft 240° 240° 7 kt METAR LFBA 221000Z AUTO 24007KT 210V270 9999 SCT014 SCT022 OVC032 17/15 Q1021 TEMPO 4000 RA BKN014
11:30
M
17 °C 10 km+ 1.200 ft 240° 240° 6 kt METAR LFBA 220930Z AUTO 24006KT 200V280 9999 DZ BKN012 OVC027 17/15 Q1021 TEMPO 4000 RA BKN020
11:00
M
16 °C 10 km+ 1.100 ft 250° 250° 5 kt METAR LFBA 220900Z AUTO 25005KT 200V280 9999 BKN011 OVC016 16/15 Q1021 BECMG BKN020
10:30
M
16 °C 10 km+ 1.000 ft 260° 260° 5 kt METAR LFBA 220830Z AUTO 26005KT 220V290 9999 BKN010/// BKN014/// OVC026/// ///TCU 16/15 Q1021 TEMPO 4000 RA
10:00
M
16 °C 9 km 1.300 ft 260° 260° 5 kt METAR LFBA 220800Z AUTO 26005KT 210V290 9000 -RA BKN013/// OVC021/// ///CB 16/15 Q1021 TEMPO RA
09:30
I
16 °C 4,5 km 2.300 ft Var Var 3 kt METAR LFBA 220730Z AUTO VRB03KT 4500 RA BR FEW013/// SCT018/// BKN023/// //////CB 16/14 Q1021 TEMPO BKN014 SCT018TCU BECMG 9999 NSW
09:00
V
16 °C 10 km+ 4.200 ft 250° 250° 4 kt METAR LFBA 220700Z AUTO 25004KT 210V290 9999 BKN042/// OVC052/// ///TCU 16/14 Q1021 TEMPO RA BKN006
08:30
V
16 °C 10 km+ 5.200 ft 260° 260° 4 kt METAR LFBA 220630Z AUTO 26004KT 220V300 9999 SCT009 SCT042 BKN052 16/14 Q1021 TEMPO RA BKN014 SCT018TCU
08:00
V
15 °C 10 km+ 5.800 ft Var Var 3 kt METAR LFBA 220600Z AUTO VRB03KT 9999 FEW008 BKN058 OVC088 15/14 Q1021 TEMPO BKN006
Segnala modifiche